Ashland, Kansas
Current Conditions -  °F | °C
As of 8:52 AM on Wednesday 22 Oct 2014 (Local Time) from KDDC Reporting Station
Scattered Clouds Scattered Clouds  
Wind Chill: 56°   Ceiling: Unl
Heat Index: 56°   Visibility: 9mi
Dew Point: 50°   Wind: 13mph
Humidity: 80%   Direction: 170°S
Pressure: 30.05"   Gusts: NA
Location:  37.19°N, 99.77°W
Report Text: KDDC 221352Z AUTO 17011KT 9SM SCT110 13/10 A3005 RMK AO2 SLP160 T01330100
Loading
Personal Weather Stations






























Interactive Weather Map New forecast layout! Learn more

10-Day Weather Forecast

Advertisements
Track Severe Weather on mobile